Time;durP1;ratioP1;P1;durP2;ratioP2;P2;SDS_P1;SDS_P2;PMS_P1;PMS_P2;Temp;Humidity;BMP_temperature;BMP_pressure;BME280_temperature;BME280_humidity;BME280_pressure;Samples;Min_cycle;Max_cycle;Signal;HPM_P1;HPM_P2
2022/06/13 00:00:21;;;;;;;44.08;11.20;;;18.40;1.00;;;;;;4997338;28;20210;-53
2022/06/13 00:02:47;;;;;;;37.03;9.05;;;;;;;;;;5000026;28;20748;-53
2022/06/13 00:05:14;;;;;;;55.08;12.70;;;18.30;99.90;;;;;;4998460;28;20222;-52
2022/06/13 00:07:40;;;;;;;57.85;13.57;;;;;;;;;;5002051;28;20270;-53
2022/06/13 00:10:07;;;;;;;76.82;17.67;;;18.40;1.00;;;;;;4998472;28;20245;-53
2022/06/13 00:12:33;;;;;;;53.55;13.20;;;;;;;;;;4998398;28;20213;-52
2022/06/13 00:14:59;;;;;;;42.55;10.07;;;;;;;;;;5000259;28;20232;-52
2022/06/13 00:17:25;;;;;;;49.15;11.38;;;;;;;;;;5010253;28;20181;-53
2022/06/13 00:19:51;;;;;;;44.30;10.55;;;18.00;99.90;;;;;;5005031;28;20213;-52
2022/06/13 00:22:17;;;;;;;59.88;14.07;;;18.30;99.90;;;;;;4997999;28;20214;-53
2022/06/13 00:24:43;;;;;;;41.30;10.10;;;17.90;70.20;;;;;;4997674;28;20213;-53
2022/06/13 00:27:09;;;;;;;75.05;17.90;;;;;;;;;;4999659;28;20244;-53
2022/06/13 00:29:37;;;;;;;49.35;12.50;;;18.10;1.00;;;;;;5000783;28;20204;-52
2022/06/13 00:32:03;;;;;;;39.58;10.23;;;18.30;99.90;;;;;;5003884;28;20578;-52
2022/06/13 00:34:28;;;;;;;56.47;14.10;;;;;;;;;;5005863;28;20213;-51
2022/06/13 00:36:54;;;;;;;72.95;17.05;;;;;;;;;;4995102;28;20338;-52
2022/06/13 00:39:20;;;;;;;38.65;10.10;;;;;;;;;;4998975;28;20275;-53
2022/06/13 00:41:47;;;;;;;37.15;9.45;;;18.10;1.00;;;;;;4996224;28;20196;-52
2022/06/13 00:44:26;;;;;;;31.08;7.90;;;17.80;1.00;;;;;;5001309;28;20661;-53
2022/06/13 00:46:52;;;;;;;60.28;14.32;;;17.90;1.00;;;;;;4997592;28;20220;-52
2022/06/13 00:49:40;;;;;;;58.03;14.02;;;18.30;47.80;;;;;;4996775;28;20681;-52
2022/06/13 00:52:14;;;;;;;61.88;14.65;;;17.60;1.00;;;;;;4996765;28;20589;-52
2022/06/13 00:54:43;;;;;;;69.93;16.08;;;18.10;1.00;;;;;;4998189;28;20220;-53
2022/06/13 00:57:14;;;;;;;58.08;13.80;;;18.40;99.90;;;;;;4994271;28;20236;-52
2022/06/13 00:59:42;;;;;;;29.73;8.13;;;18.00;1.00;;;;;;4997200;28;20213;-52
2022/06/13 01:02:08;;;;;;;63.40;15.32;;;;;;;;;;4999060;28;20209;-52
2022/06/13 01:04:35;;;;;;;53.97;13.35;;;17.80;1.00;;;;;;4996111;28;20213;-52
2022/06/13 01:07:01;;;;;;;82.35;22.17;;;18.00;1.00;;;;;;4999854;28;20213;-52
2022/06/13 01:12:14;;;;;;;63.20;18.02;;;17.70;1.00;;;;;;4994831;28;20700;-52
2022/06/13 01:14:52;;;;;;;33.55;30.40;;;17.50;1.00;;;;;;4998529;28;20250;-53
2022/06/13 01:17:50;;;;;;;101.60;65.65;;;17.70;93.40;;;;;;5000156;28;20220;-52
2022/06/13 01:20:59;;;;;;;57.72;12.98;;;17.20;1.00;;;;;;4973513;28;20206;-53
2022/06/13 01:24:03;;;;;;;58.63;12.90;;;17.40;1.00;;;;;;5000439;28;20217;-52
2022/06/13 01:26:52;;;;;;;59.95;13.25;;;17.20;1.00;;;;;;4997598;28;20325;-52
2022/06/13 01:29:47;;;;;;;50.63;11.38;;;17.30;1.00;;;;;;4998364;28;20605;-53
2022/06/13 01:32:13;;;;;;;41.58;9.38;;;17.30;1.00;;;;;;4993361;28;20905;-53
2022/06/13 01:34:44;;;;;;;57.80;12.95;;;17.40;1.00;;;;;;4996797;28;20237;-52
2022/06/13 01:37:10;;;;;;;64.63;14.55;;;;;;;;;;4996510;28;20642;-52
2022/06/13 01:40:15;;;;;;;55.78;12.73;;;17.30;1.00;;;;;;4993239;28;20225;-52
2022/06/13 01:42:43;;;;;;;36.60;8.60;;;17.50;1.00;;;;;;4998017;28;20305;-52
2022/06/13 01:45:09;;;;;;;63.97;14.15;;;17.40;1.00;;;;;;5000064;28;20224;-52
2022/06/13 01:47:59;;;;;;;54.60;11.70;;;17.40;1.00;;;;;;4996600;28;20387;-52
2022/06/13 01:50:47;;;;;;;64.47;13.85;;;17.00;1.00;;;;;;4996558;28;20214;-52
2022/06/13 01:54:08;;;;;;;46.72;10.30;;;17.20;1.00;;;;;;4999198;28;20237;-52
2022/06/13 01:56:40;;;;;;;46.00;9.65;;;17.00;1.00;;;;;;5017903;28;20427;-52
2022/06/13 01:59:27;;;;;;;49.53;10.43;;;17.00;1.00;;;;;;4979006;28;20226;-52
2022/06/13 02:02:19;;;;;;;39.10;8.32;;;17.10;1.00;;;;;;4976560;28;20257;-52
2022/06/13 02:04:53;;;;;;;29.17;6.93;;;17.30;1.00;;;;;;4976934;28;20209;-52
2022/06/13 02:07:28;;;;;;;41.08;8.55;;;17.20;1.00;;;;;;4978074;28;20575;-52
2022/06/13 02:10:02;;;;;;;58.78;12.75;;;17.30;1.00;;;;;;4976449;28;20304;-52
2022/06/13 02:12:33;;;;;;;94.80;19.55;;;16.90;1.00;;;;;;4970485;28;20279;-54
2022/06/13 02:15:15;;;;;;;49.55;10.10;;;17.50;1.00;;;;;;4997812;28;21987;-54
2022/06/13 02:17:48;;;;;;;66.45;14.05;;;17.30;1.00;;;;;;4994325;28;20201;-53
2022/06/13 02:20:20;;;;;;;53.83;10.88;;;17.10;1.00;;;;;;4982396;28;20206;-54
2022/06/13 02:22:50;;;;;;;43.13;9.57;;;17.10;1.00;;;;;;4996759;28;20236;-53
2022/06/13 02:25:31;;;;;;;38.30;8.60;;;17.20;1.00;;;;;;4994183;28;20225;-53
2022/06/13 02:28:03;;;;;;;47.03;9.85;;;17.40;1.00;;;;;;5002848;28;20693;-53
2022/06/13 02:30:34;;;;;;;36.35;7.72;;;17.20;1.00;;;;;;4998748;28;20212;-53
2022/06/13 02:33:13;;;;;;;36.35;7.72;;;17.40;1.00;;;;;;4998739;28;20727;-53
2022/06/13 02:35:53;;;;;;;54.10;11.55;;;17.30;1.00;;;;;;5000291;28;20193;-52
2022/06/13 02:38:35;;;;;;;57.03;12.02;;;17.40;1.00;;;;;;4998053;28;20220;-52
2022/06/13 02:41:06;;;;;;;39.45;8.45;;;17.30;1.00;;;;;;4997775;28;20705;-52
2022/06/13 02:43:40;;;;;;;43.72;9.80;;;17.30;1.00;;;;;;4999895;28;20211;-52
2022/06/13 02:46:31;;;;;;;52.35;11.60;;;17.20;1.00;;;;;;4996087;28;20304;-53
2022/06/13 02:49:05;;;;;;;59.38;12.93;;;17.30;1.00;;;;;;4997894;28;20233;-52
2022/06/13 02:52:09;;;;;;;26.77;6.18;;;17.20;1.00;;;;;;4997919;28;20217;-52
2022/06/13 02:54:46;;;;;;;54.88;11.43;;;17.30;1.00;;;;;;4994263;28;20226;-53
2022/06/13 02:57:45;;;;;;;50.95;10.82;;;17.10;1.00;;;;;;4998924;28;20726;-53
2022/06/13 03:00:11;;;;;;;69.15;14.02;;;;;;;;;;4994420;28;20254;-53
2022/06/13 03:02:55;;;;;;;67.20;14.10;;;17.10;1.00;;;;;;4998768;28;20267;-53
2022/06/13 03:05:39;;;;;;;60.67;12.30;;;17.30;1.00;;;;;;4998310;28;20232;-52
2022/06/13 03:08:21;;;;;;;44.85;9.38;;;16.70;1.00;;;;;;4995328;28;20227;-52
2022/06/13 03:11:06;;;;;;;60.38;12.55;;;17.00;1.00;;;;;;4995260;28;20555;-52
2022/06/13 03:13:52;;;;;;;39.28;8.60;;;16.90;1.00;;;;;;4995773;28;20216;-52
2022/06/13 03:16:35;;;;;;;34.38;7.70;;;17.00;1.00;;;;;;4999230;28;20220;-53
2022/06/13 03:19:08;;;;;;;69.70;14.10;;;16.90;1.00;;;;;;4996371;28;20685;-53
2022/06/13 03:21:37;;;;;;;45.67;9.75;;;16.70;1.00;;;;;;4996001;28;20219;-52
2022/06/13 03:24:16;;;;;;;54.63;11.23;;;16.60;1.00;;;;;;4993876;28;20209;-53
2022/06/13 03:26:50;;;;;;;46.55;10.05;;;16.70;1.00;;;;;;4997086;28;20189;-53
2022/06/13 03:29:24;;;;;;;30.50;6.72;;;16.70;1.00;;;;;;5000470;28;20783;-52
2022/06/13 03:32:09;;;;;;;80.05;16.00;;;16.90;1.00;;;;;;4999502;28;20264;-53
2022/06/13 03:34:40;;;;;;;73.28;15.30;;;16.70;1.00;;;;;;4997480;28;20217;-53
2022/06/13 03:37:29;;;;;;;43.90;8.98;;;16.60;1.00;;;;;;4993069;28;20225;-52
2022/06/13 03:40:11;;;;;;;71.75;14.88;;;16.50;1.00;;;;;;4994310;28;20709;-53
2022/06/13 03:42:48;;;;;;;45.15;9.57;;;16.60;1.00;;;;;;4993923;28;20267;-53
2022/06/13 03:45:22;;;;;;;78.53;16.13;;;16.70;1.00;;;;;;4992981;28;20732;-52
2022/06/13 03:47:54;;;;;;;57.17;12.50;;;16.60;1.00;;;;;;4993229;28;20224;-53
2022/06/13 03:50:36;;;;;;;82.28;16.63;;;16.50;1.00;;;;;;4997253;28;20173;-53
2022/06/13 03:53:07;;;;;;;51.70;10.98;;;16.80;1.00;;;;;;4995545;28;20685;-53
2022/06/13 03:55:40;;;;;;;49.10;10.15;;;16.60;1.00;;;;;;5001831;28;20599;-53
2022/06/13 03:58:21;;;;;;;63.38;13.13;;;15.80;1.00;;;;;;4998266;28;20360;-52
2022/06/13 04:01:19;;;;;;;33.92;7.05;;;16.60;1.00;;;;;;4993084;28;20213;-52
2022/06/13 04:03:45;;;;;;;48.30;10.13;;;;;;;;;;5001418;28;20635;-53
2022/06/13 04:06:34;;;;;;;66.47;13.77;;;16.70;1.00;;;;;;4998973;28;20217;-53
2022/06/13 04:09:27;;;;;;;31.02;6.60;;;16.60;1.00;;;;;;4996492;28;20222;-52
2022/06/13 04:12:18;;;;;;;57.20;12.45;;;16.60;1.00;;;;;;4998173;28;20189;-53
2022/06/13 04:14:44;;;;;;;53.47;11.65;;;;;;;;;;4995763;28;20183;-53
2022/06/13 04:17:40;;;;;;;50.20;10.63;;;16.70;1.00;;;;;;4996314;28;20562;-53
2022/06/13 04:20:36;;;;;;;43.53;9.27;;;16.50;1.00;;;;;;4995086;28;20662;-52
2022/06/13 04:23:01;;;;;;;55.20;11.32;;;16.70;1.00;;;;;;4999087;28;20197;-53
2022/06/13 04:25:45;;;;;;;60.90;13.10;;;16.70;1.00;;;;;;5001515;28;20568;-53
2022/06/13 04:28:20;;;;;;;60.97;12.43;;;16.80;1.00;;;;;;4999151;28;20235;-53
2022/06/13 04:30:48;;;;;;;54.03;11.23;;;16.80;1.00;;;;;;5003960;28;20220;-53
2022/06/13 04:33:28;;;;;;;60.47;12.65;;;16.30;1.00;;;;;;5000928;28;20759;-52
2022/06/13 04:35:55;;;;;;;49.25;10.57;;;17.10;1.00;;;;;;4999875;28;20299;-53
2022/06/13 04:38:23;;;;;;;38.75;8.23;;;17.00;1.00;;;;;;5003786;28;20205;-52
2022/06/13 04:40:53;;;;;;;48.15;10.18;;;17.30;1.00;;;;;;5004221;28;20222;-53
2022/06/13 04:43:23;;;;;;;53.97;11.57;;;17.40;99.90;;;;;;5002500;28;20221;-53
2022/06/13 04:46:22;;;;;;;63.47;13.38;;;17.40;99.90;;;;;;5002029;28;20220;-53
2022/06/13 04:48:50;;;;;;;45.38;9.65;;;17.30;1.00;;;;;;4999089;28;20221;-52
2022/06/13 04:51:20;;;;;;;89.85;17.92;;;17.20;1.00;;;;;;4997116;28;20500;-52
2022/06/13 04:54:12;;;;;;;48.50;11.13;;;17.10;99.90;;;;;;4997252;28;20561;-53
2022/06/13 04:56:38;;;;;;;48.17;10.07;;;;;;;;;;5000294;28;20208;-53
2022/06/13 04:59:04;;;;;;;33.10;7.10;;;17.10;99.90;;;;;;4994515;28;20226;-53
2022/06/13 05:01:36;;;;;;;32.42;7.05;;;17.20;99.90;;;;;;4992857;28;20206;-52
2022/06/13 05:04:08;;;;;;;38.03;8.13;;;17.50;99.90;;;;;;4992665;28;20213;-53
2022/06/13 05:06:39;;;;;;;31.25;6.90;;;17.10;99.90;;;;;;4992896;28;20621;-54
2022/06/13 05:09:10;;;;;;;21.35;5.25;;;17.00;99.90;;;;;;4992621;28;20607;-53
2022/06/13 05:11:46;;;;;;;36.28;7.72;;;17.50;99.90;;;;;;4992559;28;20186;-53
2022/06/13 05:14:24;;;;;;;18.88;4.45;;;17.20;99.90;;;;;;4993074;28;20531;-53
2022/06/13 05:16:50;;;;;;;25.92;5.80;;;;;;;;;;5003276;28;20231;-54
2022/06/13 05:19:48;;;;;;;24.83;5.50;;;16.90;99.90;;;;;;5011790;28;20216;-54
2022/06/13 05:22:14;;;;;;;120.20;23.35;;;;;;;;;;4975110;28;20298;-53
2022/06/13 05:25:12;;;;;;;79.80;16.35;;;17.50;42.60;;;;;;4980746;28;20842;-53
2022/06/13 05:27:38;;;;;;;80.13;16.42;;;;;;;;;;4978408;28;20935;-53
2022/06/13 05:30:04;;;;;;;105.18;21.42;;;18.20;52.80;;;;;;4978905;28;20210;-53
2022/06/13 05:32:29;;;;;;;55.58;12.23;;;17.60;32.40;;;;;;4983427;28;20268;-53
2022/06/13 05:34:56;;;;;;;218.82;41.95;;;;;;;;;;4985598;28;20220;-53
2022/06/13 05:37:22;;;;;;;154.20;28.00;;;;;;;;;;4966359;28;20233;-53
2022/06/13 05:39:48;;;;;;;107.22;20.95;;;;;;;;;;4973887;28;20228;-53
2022/06/13 05:42:14;;;;;;;232.77;43.92;;;17.70;99.90;;;;;;4972792;28;20225;-53
2022/06/13 05:44:41;;;;;;;111.07;21.17;;;17.70;99.90;;;;;;4983869;28;20189;-53
2022/06/13 05:47:18;;;;;;;108.07;19.75;;;17.60;78.30;;;;;;4978529;28;20180;-53
2022/06/13 05:49:45;;;;;;;66.25;13.70;;;17.60;58.30;;;;;;4989321;28;20208;-53
2022/06/13 05:52:12;;;;;;;145.50;24.92;;;17.70;1.00;;;;;;4977106;28;20952;-52
2022/06/13 05:54:37;;;;;;;124.38;22.63;;;17.60;99.90;;;;;;4975104;28;20928;-53
2022/06/13 05:57:04;;;;;;;182.10;31.33;;;17.80;99.90;;;;;;4977634;28;20225;-52
2022/06/13 05:59:30;;;;;;;230.60;41.22;;;;;;;;;;4973137;28;20204;-53
2022/06/13 06:01:56;;;;;;;117.00;20.85;;;;;;;;;;4977627;28;20225;-52
2022/06/13 06:04:22;;;;;;;205.60;36.20;;;;;;;;;;4966748;28;20222;-52
2022/06/13 06:06:48;;;;;;;72.10;13.55;;;;;;;;;;4977011;28;20209;-52
2022/06/13 06:09:14;;;;;;;126.35;23.00;;;;;;;;;;4984366;28;20233;-52
2022/06/13 06:11:40;;;;;;;150.55;26.65;;;;;;;;;;4987227;28;20193;-52
2022/06/13 06:14:07;;;;;;;78.68;15.80;;;;;;;;;;4971023;28;20181;-52
2022/06/13 06:16:33;;;;;;;175.95;33.72;;;17.90;1.00;;;;;;4987106;28;20236;-52
2022/06/13 06:18:58;;;;;;;134.20;25.85;;;;;;;;;;4983031;28;20216;-52
2022/06/13 06:21:24;;;;;;;71.97;14.10;;;;;;;;;;4985223;28;20858;-52
2022/06/13 06:23:50;;;;;;;79.85;15.30;;;18.30;99.90;;;;;;4993727;28;20188;-52
2022/06/13 06:26:20;;;;;;;94.90;19.05;;;18.00;94.90;;;;;;4991484;28;20192;-52
2022/06/13 06:28:46;;;;;;;47.78;10.23;;;;;;;;;;4997714;28;20271;-52
2022/06/13 06:31:12;;;;;;;193.02;37.53;;;;;;;;;;4991542;28;20243;-52
2022/06/13 06:33:38;;;;;;;52.78;11.05;;;18.70;1.00;;;;;;4998112;28;20585;-52
2022/06/13 06:36:04;;;;;;;53.42;11.07;;;18.20;1.00;;;;;;5000067;28;20228;-52
2022/06/13 06:38:30;;;;;;;59.58;12.40;;;;;;;;;;4990907;28;20359;-52
2022/06/13 06:40:56;;;;;;;52.85;11.63;;;;;;;;;;4992033;28;20260;-52
2022/06/13 06:43:22;;;;;;;51.92;10.85;;;;;;;;;;4990046;28;20368;-53
2022/06/13 06:45:48;;;;;;;66.00;14.20;;;;;;;;;;4999519;28;20688;-52
2022/06/13 06:48:16;;;;;;;57.03;12.15;;;18.60;99.90;;;;;;4991971;28;20300;-53
2022/06/13 06:50:44;;;;;;;38.50;8.25;;;18.80;1.00;;;;;;4992350;28;20613;-53
2022/06/13 06:53:10;;;;;;;56.40;12.15;;;;;;;;;;4993631;28;20219;-52
2022/06/13 07:01:08;;;;;;;75.95;15.43;;;19.20;1.00;;;;;;4994821;28;20267;-52
2022/06/13 07:03:34;;;;;;;90.00;18.33;;;19.30;99.90;;;;;;4997779;28;20208;-52
2022/06/13 07:06:00;;;;;;;50.05;10.80;;;;;;;;;;4990526;28;20271;-52
2022/06/13 07:08:27;;;;;;;125.65;22.98;;;;;;;;;;4990160;28;20217;-52
2022/06/13 07:10:53;;;;;;;92.05;18.13;;;;;;;;;;4996853;28;20736;-52
2022/06/13 07:13:20;;;;;;;63.10;12.82;;;17.90;99.90;;;;;;4989583;28;20212;-53
2022/06/13 07:15:48;;;;;;;75.82;16.08;;;;;;;;;;4991069;28;20212;-53
2022/06/13 07:18:14;;;;;;;67.40;14.88;;;;;;;;;;4996529;28;20311;-52
2022/06/13 07:20:40;;;;;;;125.10;26.40;;;;;;;;;;4993193;28;20779;-52
2022/06/13 07:23:06;;;;;;;38.50;9.05;;;;;;;;;;4997403;28;20359;-52
2022/06/13 07:25:32;;;;;;;90.32;19.70;;;;;;;;;;4997097;28;20216;-52
2022/06/13 07:27:58;;;;;;;66.13;15.55;;;;;;;;;;4990462;28;20813;-53
2022/06/13 07:30:26;;;;;;;66.90;14.60;;;19.10;1.00;;;;;;4998715;28;20218;-52
2022/06/13 07:32:54;;;;;;;62.72;14.43;;;18.90;1.00;;;;;;4995007;28;20188;-52
2022/06/13 07:35:22;;;;;;;97.13;20.67;;;18.70;1.00;;;;;;4999784;28;20260;-52
2022/06/13 07:40:32;;;;;;;75.75;16.80;;;;;;;;;;4995165;28;20239;-52
2022/06/13 07:43:01;;;;;;;64.90;14.20;;;19.30;1.00;;;;;;4999486;28;20261;-52
2022/06/13 07:45:29;;;;;;;56.78;12.48;;;19.50;31.50;;;;;;4999294;28;20244;-52
2022/06/13 07:47:55;;;;;;;55.33;11.95;;;19.40;1.00;;;;;;5000422;28;20229;-52
2022/06/13 07:50:23;;;;;;;93.47;20.13;;;19.30;99.90;;;;;;4993171;28;20264;-52
2022/06/13 07:52:50;;;;;;;54.20;12.02;;;19.30;99.90;;;;;;4995164;28;20701;-53
2022/06/13 07:55:17;;;;;;;124.32;25.60;;;19.30;99.90;;;;;;4996309;28;20222;-52
2022/06/13 07:57:43;;;;;;;48.25;11.20;;;19.70;1.00;;;;;;4994593;28;20221;-52
2022/06/13 08:00:12;;;;;;;47.13;10.70;;;19.10;1.00;;;;;;4996540;28;20221;-52
2022/06/13 08:02:39;;;;;;;98.30;21.25;;;19.60;99.70;;;;;;5000234;28;20639;-52
2022/06/13 08:05:05;;;;;;;85.45;19.77;;;19.80;1.00;;;;;;4993664;28;20611;-52
2022/06/13 08:07:30;;;;;;;69.25;15.98;;;19.80;1.00;;;;;;4996779;28;20216;-52
2022/06/13 08:09:57;;;;;;;61.10;13.93;;;;;;;;;;4999006;28;20225;-52
2022/06/13 08:12:23;;;;;;;56.92;12.50;;;19.80;99.90;;;;;;4999989;28;20263;-52
2022/06/13 08:14:49;;;;;;;37.42;8.57;;;20.00;99.90;;;;;;4992292;28;20233;-52
2022/06/13 08:17:16;;;;;;;61.97;13.40;;;19.70;19.60;;;;;;4997222;28;20200;-52
2022/06/13 08:19:42;;;;;;;47.65;11.02;;;;;;;;;;4989244;28;20257;-52
2022/06/13 08:22:07;;;;;;;40.75;9.77;;;20.30;1.00;;;;;;4989937;28;20236;-52
2022/06/13 08:24:33;;;;;;;95.30;21.00;;;20.10;99.90;;;;;;4982396;28;20220;-52
2022/06/13 08:26:59;;;;;;;79.70;17.92;;;;;;;;;;4986803;28;20221;-52
2022/06/13 08:29:25;;;;;;;135.23;30.30;;;;;;;;;;4977375;28;21023;-52
2022/06/13 08:31:51;;;;;;;76.28;18.90;;;;;;;;;;4989724;28;20232;-52
2022/06/13 08:34:17;;;;;;;165.20;38.13;;;;;;;;;;4982119;28;20685;-52
2022/06/13 08:36:43;;;;;;;133.70;31.80;;;;;;;;;;4982644;28;20222;-52
2022/06/13 08:39:09;;;;;;;199.55;47.88;;;;;;;;;;4980974;28;20224;-52
2022/06/13 08:41:57;;;;;;;102.63;25.48;;;20.70;1.00;;;;;;4990379;28;20181;-52
2022/06/13 08:44:47;;;;;;;138.52;30.73;;;20.50;1.00;;;;;;4998214;28;20232;-52
2022/06/13 08:47:43;;;;;;;74.20;17.48;;;20.00;1.00;;;;;;4997601;28;20245;-52
2022/06/13 08:50:30;;;;;;;117.97;27.25;;;20.20;99.90;;;;;;4988015;28;20705;-52
2022/06/13 08:53:03;;;;;;;72.47;18.20;;;19.90;1.00;;;;;;4993265;28;20209;-52
2022/06/13 08:55:38;;;;;;;82.70;19.75;;;19.60;1.00;;;;;;4990050;28;20609;-52
2022/06/13 08:58:12;;;;;;;116.38;27.05;;;19.60;1.00;;;;;;4983754;28;20288;-52
2022/06/13 09:00:43;;;;;;;56.92;14.00;;;19.70;1.00;;;;;;4994469;28;20217;-52
2022/06/13 09:03:14;;;;;;;92.43;21.52;;;20.00;1.00;;;;;;4987859;28;22126;-52
2022/06/13 09:05:53;;;;;;;105.90;24.90;;;19.90;1.00;;;;;;4993817;28;20669;-52
2022/06/13 09:08:40;;;;;;;59.30;14.32;;;19.80;99.90;;;;;;4990456;28;20428;-53
2022/06/13 09:11:18;;;;;;;108.80;25.42;;;19.90;1.00;;;;;;4987667;28;20208;-52
2022/06/13 09:13:57;;;;;;;60.72;15.07;;;19.90;1.00;;;;;;4989028;28;20633;-52
2022/06/13 09:16:35;;;;;;;104.20;22.67;;;20.20;1.00;;;;;;4983291;28;20296;-53
2022/06/13 09:19:25;;;;;;;69.82;17.80;;;20.20;99.90;;;;;;4996399;28;20354;-52
2022/06/13 09:22:08;;;;;;;51.15;13.00;;;20.50;99.90;;;;;;4995074;28;20589;-53
2022/06/13 09:25:16;;;;;;;56.60;14.32;;;20.70;1.00;;;;;;5002022;28;20204;-54
2022/06/13 09:27:56;;;;;;;32.58;8.23;;;20.50;99.90;;;;;;5002044;28;20237;-53
2022/06/13 09:30:30;;;;;;;35.15;8.65;;;20.00;99.90;;;;;;5000137;28;20209;-53
2022/06/13 09:33:00;;;;;;;36.00;9.43;;;20.10;1.00;;;;;;5002815;28;20224;-53
2022/06/13 09:35:32;;;;;;;51.50;12.45;;;19.90;99.90;;;;;;5009257;28;21036;-53
2022/06/13 09:38:19;;;;;;;16.60;4.95;;;20.00;99.90;;;;;;5010273;28;20209;-53
2022/06/13 09:41:00;;;;;;;38.20;9.45;;;19.90;41.30;;;;;;5005331;28;20689;-53
2022/06/13 09:44:03;;;;;;;41.50;10.05;;;19.70;1.00;;;;;;5007090;28;20557;-53
2022/06/13 09:46:29;;;;;;;58.90;14.10;;;;;;;;;;5001980;28;20232;-53
2022/06/13 09:49:16;;;;;;;26.85;7.35;;;19.80;1.00;;;;;;5002841;28;20398;-53
2022/06/13 09:52:05;;;;;;;29.27;7.45;;;19.80;1.00;;;;;;4998589;28;20267;-53
2022/06/13 09:54:37;;;;;;;31.15;8.40;;;20.00;99.90;;;;;;5010292;28;20423;-53
2022/06/13 09:57:03;;;;;;;46.88;11.65;;;;;;;;;;5007333;28;20643;-53
2022/06/13 09:59:43;;;;;;;53.22;12.80;;;19.40;99.90;;;;;;5009893;28;20292;-53
2022/06/13 10:02:27;;;;;;;31.38;7.65;;;19.70;1.00;;;;;;5009462;28;20216;-53
2022/06/13 10:04:59;;;;;;;41.55;9.85;;;19.90;99.90;;;;;;5001614;28;20707;-53
2022/06/13 10:08:02;;;;;;;60.40;14.32;;;19.60;1.00;;;;;;4996963;28;20266;-53
2022/06/13 10:10:52;;;;;;;48.13;11.25;;;19.80;1.00;;;;;;5002982;28;20682;-52
2022/06/13 10:13:36;;;;;;;35.55;8.48;;;19.90;1.00;;;;;;4997648;28;20213;-53
2022/06/13 10:16:06;;;;;;;46.80;10.85;;;19.80;99.90;;;;;;4998464;28;20224;-53
2022/06/13 10:19:00;;;;;;;60.92;14.15;;;19.70;1.00;;;;;;5003572;28;20225;-53
2022/06/13 10:21:42;;;;;;;61.88;14.00;;;19.90;1.00;;;;;;5003692;28;20213;-53
2022/06/13 10:24:24;;;;;;;54.53;12.77;;;20.00;1.00;;;;;;5001051;28;20209;-52
2022/06/13 10:27:11;;;;;;;79.85;18.13;;;20.30;1.00;;;;;;5002716;28;20684;-53
2022/06/13 10:29:53;;;;;;;66.10;15.18;;;20.90;1.00;;;;;;4994624;28;20244;-53
2022/06/13 10:32:34;;;;;;;58.80;13.75;;;20.20;1.00;;;;;;5001524;28;20230;-53
2022/06/13 10:35:24;;;;;;;74.35;16.92;;;20.10;1.00;;;;;;5020144;28;20703;-53
2022/06/13 10:38:02;;;;;;;32.85;8.23;;;20.50;99.90;;;;;;4999998;28;20248;-53
2022/06/13 10:40:28;;;;;;;60.72;14.00;;;20.50;1.00;;;;;;5001941;28;20319;-52
2022/06/13 10:42:54;;;;;;;54.20;13.43;;;21.00;1.00;;;;;;5000661;28;20236;-53
2022/06/13 10:45:23;;;;;;;79.05;18.38;;;;;;;;;;4998243;28;20221;-53
2022/06/13 10:48:06;;;;;;;86.63;21.30;;;21.50;1.00;;;;;;4992829;28;20193;-53
2022/06/13 10:50:37;;;;;;;62.50;14.60;;;21.40;1.00;;;;;;4997317;28;20177;-52
2022/06/13 10:53:06;;;;;;;19.35;5.45;;;21.50;1.00;;;;;;4999433;28;20819;-53
2022/06/13 10:55:39;;;;;;;64.75;15.60;;;21.20;1.00;;;;;;4993309;28;20228;-53
2022/06/13 10:58:14;;;;;;;47.50;11.73;;;20.90;99.90;;;;;;4999450;28;20216;-52
2022/06/13 11:00:41;;;;;;;73.68;17.92;;;21.50;99.90;;;;;;4992233;28;20359;-52
2022/06/13 11:03:13;;;;;;;70.05;16.92;;;21.10;1.00;;;;;;5003728;28;20463;-53
2022/06/13 11:05:50;;;;;;;50.70;12.82;;;21.00;1.00;;;;;;5007312;28;20200;-53
2022/06/13 11:08:16;;;;;;;67.97;17.00;;;;;;;;;;4995918;28;20220;-53
2022/06/13 11:10:50;;;;;;;68.93;16.73;;;20.80;1.00;;;;;;4991423;28;20677;-52
2022/06/13 11:13:27;;;;;;;124.53;28.63;;;20.80;99.90;;;;;;4992806;28;20225;-52
2022/06/13 11:24:40;;;;;;;57.55;14.75;;;21.10;99.90;;;;;;4985109;28;20224;-52
2022/06/13 11:30:31;;;;;;;74.32;18.08;;;21.50;1.00;;;;;;4983016;28;20251;-52
2022/06/13 11:33:04;;;;;;;28.65;8.45;;;21.80;99.90;;;;;;4985898;28;20765;-53
2022/06/13 11:35:38;;;;;;;153.02;37.67;;;21.60;1.00;;;;;;4992392;28;20350;-52
2022/06/13 11:38:28;;;;;;;144.20;34.20;;;21.50;1.00;;;;;;4979752;28;20239;-53
2022/06/13 11:41:18;;;;;;;63.13;16.15;;;21.70;1.00;;;;;;4988866;28;20269;-52
2022/06/13 11:43:52;;;;;;;58.70;15.10;;;21.90;1.00;;;;;;4985625;28;20210;-53
2022/06/13 11:46:26;;;;;;;148.40;35.80;;;22.10;1.00;;;;;;4987033;28;20243;-51
2022/06/13 11:48:52;;;;;;;71.22;18.75;;;;;;;;;;4985838;28;20701;-51
2022/06/13 11:51:29;;;;;;;116.75;31.60;;;22.50;1.00;;;;;;4986378;28;20224;-53
2022/06/13 11:53:58;;;;;;;86.22;25.27;;;22.50;1.00;;;;;;4989282;28;20228;-51
2022/06/13 11:56:30;;;;;;;86.43;27.55;;;22.20;1.00;;;;;;4978663;28;20594;-51
2022/06/13 11:58:59;;;;;;;90.60;27.52;;;22.00;1.00;;;;;;4985850;28;20214;-51
2022/06/13 12:01:39;;;;;;;106.15;30.25;;;22.00;99.90;;;;;;4980322;28;20237;-51
2022/06/13 12:04:13;;;;;;;69.00;20.33;;;22.00;1.00;;;;;;4989279;28;20258;-51
2022/06/13 12:06:58;;;;;;;128.07;35.25;;;22.00;1.00;;;;;;5000773;28;20200;-51
2022/06/13 12:09:34;;;;;;;125.03;34.10;;;22.80;1.00;;;;;;4988008;28;20258;-51
2022/06/13 12:12:06;;;;;;;92.68;28.20;;;23.60;1.00;;;;;;4998189;28;20259;-51
2022/06/13 12:14:41;;;;;;;121.45;37.75;;;23.00;1.00;;;;;;4988052;28;20260;-51
2022/06/13 12:17:16;;;;;;;81.95;31.63;;;22.50;1.00;;;;;;4993732;28;20626;-51
2022/06/13 12:19:58;;;;;;;204.00;68.60;;;22.90;1.00;;;;;;4983085;28;20208;-51
2022/06/13 12:22:36;;;;;;;181.02;54.38;;;22.50;99.90;;;;;;4977878;28;20252;-51
2022/06/13 12:25:31;;;;;;;83.30;28.67;;;23.30;1.00;;;;;;4983819;28;20300;-51
2022/06/13 12:28:19;;;;;;;200.93;50.47;;;23.40;1.00;;;;;;4984126;28;20719;-51
2022/06/13 12:31:06;;;;;;;79.47;25.75;;;23.50;1.00;;;;;;4988170;28;20209;-52
2022/06/13 12:33:50;;;;;;;158.18;42.78;;;23.40;1.00;;;;;;4988925;28;20256;-51
2022/06/13 12:36:28;;;;;;;84.53;27.52;;;23.40;1.00;;;;;;4997378;28;20312;-51
2022/06/13 12:39:12;;;;;;;68.15;23.35;;;23.00;1.00;;;;;;4986642;28;20621;-51
2022/06/13 12:42:15;;;;;;;59.78;19.33;;;22.30;99.90;;;;;;4987492;28;20674;-51
2022/06/13 12:44:52;;;;;;;169.82;56.03;;;22.50;1.00;;;;;;4987377;28;20200;-52
2022/06/13 12:47:35;;;;;;;152.88;45.63;;;22.50;1.00;;;;;;4987067;28;20176;-51
2022/06/13 12:50:01;;;;;;;77.28;20.85;;;;;;;;;;4990674;28;20220;-51
2022/06/13 12:52:51;;;;;;;167.40;45.22;;;22.20;1.00;;;;;;4990461;28;20617;-51
2022/06/13 12:55:31;;;;;;;155.57;39.25;;;22.50;1.00;;;;;;4979620;28;20247;-51
2022/06/13 12:58:38;;;;;;;157.05;39.83;;;23.00;1.00;;;;;;4965136;28;20229;-51
2022/06/13 13:01:17;;;;;;;174.05;44.38;;;23.40;1.00;;;;;;4976215;28;20208;-51
2022/06/13 13:03:43;;;;;;;128.82;33.47;;;;;;;;;;4978678;28;21630;-55
2022/06/13 13:06:46;;;;;;;82.07;22.20;;;22.90;99.90;;;;;;4980195;28;20793;-51
2022/06/13 13:09:17;;;;;;;156.57;40.67;;;22.80;1.00;;;;;;4986717;28;20228;-51
2022/06/13 13:12:01;;;;;;;71.82;21.48;;;22.80;99.90;;;;;;4988946;28;20657;-51
2022/06/13 13:14:39;;;;;;;158.73;40.78;;;22.70;3.70;;;;;;4983425;28;20210;-51
2022/06/13 13:17:28;;;;;;;100.68;26.95;;;22.30;99.90;;;;;;4985079;28;20682;-51
2022/06/13 13:19:53;;;;;;;115.93;31.77;;;22.70;1.00;;;;;;4979708;28;20617;-51
2022/06/13 13:22:26;;;;;;;83.22;22.63;;;22.40;1.00;;;;;;4987638;28;20209;-51
2022/06/13 13:25:22;;;;;;;149.70;39.13;;;22.30;1.00;;;;;;4987098;28;20275;-51
2022/06/13 13:28:04;;;;;;;163.55;43.35;;;22.40;1.00;;;;;;4990184;28;20213;-51
2022/06/13 13:30:36;;;;;;;232.25;59.90;;;22.50;1.00;;;;;;4981358;28;20225;-52
2022/06/13 13:33:08;;;;;;;197.30;50.42;;;22.50;1.00;;;;;;4967581;28;20216;-51
2022/06/13 13:36:00;;;;;;;105.20;28.20;;;22.60;1.00;;;;;;4986628;28;20185;-52
2022/06/13 13:38:36;;;;;;;83.55;21.52;;;22.40;99.90;;;;;;4991325;28;21703;-51
2022/06/13 13:41:19;;;;;;;119.63;31.13;;;22.10;99.90;;;;;;4983727;28;20249;-54
2022/06/13 13:44:04;;;;;;;22.98;7.78;;;22.50;1.00;;;;;;4984581;28;20223;-51
2022/06/13 13:46:43;;;;;;;45.03;13.23;;;22.60;1.00;;;;;;4987714;28;20270;-51
2022/06/13 13:49:26;;;;;;;105.88;28.17;;;22.40;99.90;;;;;;4996561;28;20242;-51
2022/06/13 13:52:01;;;;;;;369.20;92.53;;;21.80;1.00;;;;;;4976124;28;20221;-51
2022/06/13 13:54:50;;;;;;;230.10;57.72;;;23.40;1.00;;;;;;4963526;28;20819;-52
2022/06/13 13:57:16;;;;;;;160.88;38.03;;;;;;;;;;4972928;28;20421;-51